Time;durP1;ratioP1;P1;durP2;ratioP2;P2;SDS_P1;SDS_P2;PMS_P1;PMS_P2;Temp;Humidity;BMP_temperature;BMP_pressure;BME280_temperature;BME280_humidity;BME280_pressure;Samples;Min_cycle;Max_cycle;Signal;HPM_P1;HPM_P2
2023/01/08 00:00:15;;;;;;;24.13;12.35;;;;;;;;;;1045960;28;20503;-73
2023/01/08 00:00:45;;;;;;;32.25;11.75;;;;;;;;;;1046359;28;20024;-73
2023/01/08 00:01:16;;;;;;;27.60;12.05;;;;;;;;;;1046590;28;20020;-73
2023/01/08 00:01:48;;;;;;;28.27;12.02;;;;;;;;;;1046855;28;20048;-73
2023/01/08 00:02:18;;;;;;;28.13;12.15;;;;;;;;;;1046803;28;20590;-73
2023/01/08 00:02:50;;;;;;;25.92;13.65;;;;;;;;;;1046657;28;20032;-74
2023/01/08 00:03:20;;;;;;;31.92;14.57;;;;;;;;;;1045916;28;20484;-74
2023/01/08 00:03:51;;;;;;;30.13;13.27;;;;;;;;;;1046491;28;20016;-74
2023/01/08 00:04:21;;;;;;;28.80;12.15;;;;;;;;;;1046367;28;20031;-74
2023/01/08 00:04:52;;;;;;;19.77;10.75;;;;;;;;;;1045806;28;20025;-74
2023/01/08 00:05:22;;;;;;;26.52;11.68;;;;;;;;;;1048319;28;20483;-73
2023/01/08 00:05:53;;;;;;;23.05;12.15;;;;;;;;;;1052585;28;20471;-73
2023/01/08 00:06:24;;;;;;;22.60;10.13;;;;;;;;;;1052497;28;20130;-74
2023/01/08 00:06:54;;;;;;;28.17;14.85;;;;;;;;;;1048045;28;20032;-74
2023/01/08 00:07:25;;;;;;;26.35;12.98;;;;;;;;;;1046176;28;20032;-74
2023/01/08 00:07:55;;;;;;;28.15;12.07;;;;;;;;;;1046931;28;20473;-74
2023/01/08 00:08:26;;;;;;;23.90;12.70;;;;;;;;;;1045858;28;20402;-73
2023/01/08 00:08:56;;;;;;;30.77;12.55;;;;;;;;;;1044023;28;20435;-74
2023/01/08 00:09:27;;;;;;;23.48;12.43;;;;;;;;;;1044169;28;20035;-74
2023/01/08 00:09:58;;;;;;;30.42;12.73;;;;;;;;;;1043789;28;20111;-74
2023/01/08 00:10:28;;;;;;;29.55;13.63;;;;;;;;;;1041935;28;20095;-74
2023/01/08 00:11:00;;;;;;;21.02;11.13;;;;;;;;;;1041853;28;20029;-74
2023/01/08 00:11:30;;;;;;;24.27;12.00;;;;;;;;;;1042062;28;20567;-74
2023/01/08 00:12:01;;;;;;;21.30;11.43;;;;;;;;;;1046082;28;20025;-74
2023/01/08 00:12:31;;;;;;;26.52;11.68;;;;;;;;;;1046920;28;20502;-74
2023/01/08 00:13:02;;;;;;;51.25;14.27;;;;;;;;;;1047354;28;20507;-74
2023/01/08 00:13:33;;;;;;;25.33;10.30;;;;;;;;;;1045347;28;20455;-74
2023/01/08 00:14:04;;;;;;;34.70;12.98;;;;;;;;;;1045701;28;20094;-74
2023/01/08 00:14:34;;;;;;;22.90;11.13;;;;;;;;;;1045867;28;20025;-74
2023/01/08 00:15:05;;;;;;;28.27;13.18;;;;;;;;;;1047092;28;20017;-74
2023/01/08 00:15:36;;;;;;;33.40;12.45;;;;;;;;;;1046365;28;20111;-74
2023/01/08 00:16:08;;;;;;;25.73;13.43;;;;;;;;;;1046261;28;20021;-74
2023/01/08 00:16:38;;;;;;;28.10;12.48;;;;;;;;;;1045873;28;20025;-74
2023/01/08 00:17:09;;;;;;;37.05;12.60;;;;;;;;;;1045930;28;20466;-74
2023/01/08 00:17:39;;;;;;;31.38;11.57;;;;;;;;;;1046012;28;20039;-74
2023/01/08 00:18:10;;;;;;;24.60;12.32;;;;;;;;;;1046081;28;20017;-73
2023/01/08 00:18:41;;;;;;;37.65;11.43;;;;;;;;;;1047191;28;20028;-74
2023/01/08 00:19:12;;;;;;;24.60;12.25;;;;;;;;;;1045790;28;20078;-74
2023/01/08 00:19:43;;;;;;;33.13;13.52;;;;;;;;;;1045995;28;20029;-74
2023/01/08 00:20:13;;;;;;;23.25;11.27;;;;;;;;;;1046249;28;20024;-74
2023/01/08 00:20:45;;;;;;;26.10;13.50;;;;;;;;;;1046451;28;20029;-74
2023/01/08 00:21:15;;;;;;;27.27;12.48;;;;;;;;;;1046513;28;20472;-74
2023/01/08 00:21:46;;;;;;;29.63;13.35;;;;;;;;;;1046729;28;20059;-74
2023/01/08 00:22:16;;;;;;;27.67;13.45;;;;;;;;;;1046029;28;20052;-74
2023/01/08 00:22:50;;;;;;;23.02;11.60;;;;;;;;;;1046205;28;20555;-74
2023/01/08 00:23:21;;;;;;;27.58;11.68;;;;;;;;;;1046258;28;20032;-73
2023/01/08 00:23:52;;;;;;;31.83;15.00;;;;;;;;;;1046368;28;20047;-74
2023/01/08 00:24:23;;;;;;;18.42;10.40;;;;;;;;;;1046266;28;20070;-74
2023/01/08 00:24:53;;;;;;;24.25;11.35;;;;;;;;;;1045803;28;20020;-74
2023/01/08 00:25:24;;;;;;;20.27;10.70;;;;;;;;;;1046355;28;20160;-73
2023/01/08 00:25:54;;;;;;;38.13;12.23;;;;;;;;;;1046501;28;20020;-73
2023/01/08 00:26:25;;;;;;;31.50;11.65;;;;;;;;;;1045375;28;20075;-73
2023/01/08 00:26:55;;;;;;;27.42;13.07;;;;;;;;;;1045367;28;20464;-73
2023/01/08 00:27:26;;;;;;;28.25;12.07;;;;;;;;;;1047167;28;20449;-73
2023/01/08 00:27:56;;;;;;;22.55;11.95;;;;;;;;;;1041863;28;20385;-74
2023/01/08 00:28:27;;;;;;;24.45;11.07;;;;;;;;;;1041785;28;20013;-74
2023/01/08 00:28:57;;;;;;;21.23;11.32;;;;;;;;;;1045944;28;20540;-74
2023/01/08 00:29:28;;;;;;;33.28;12.25;;;;;;;;;;1045875;28;20024;-74
2023/01/08 00:29:58;;;;;;;33.85;14.35;;;;;;;;;;1045852;28;20052;-74
2023/01/08 00:30:29;;;;;;;28.60;13.63;;;;;;;;;;1045927;28;20028;-73
2023/01/08 00:31:01;;;;;;;26.55;12.82;;;;;;;;;;1046340;28;20033;-73
2023/01/08 00:31:32;;;;;;;30.58;12.27;;;;;;;;;;1046500;28;20119;-73
2023/01/08 00:32:03;;;;;;;29.58;13.50;;;;;;;;;;1046657;28;20012;-74
2023/01/08 00:32:34;;;;;;;38.70;12.75;;;;;;;;;;1046575;28;20021;-74
2023/01/08 00:33:05;;;;;;;19.02;12.00;;;;;;;;;;1046057;28;20089;-74
2023/01/08 00:33:36;;;;;;;25.30;12.43;;;;;;;;;;1045874;28;20451;-74
2023/01/08 00:34:06;;;;;;;26.73;13.48;;;;;;;;;;1045999;28;20025;-74
2023/01/08 00:34:37;;;;;;;37.90;15.27;;;;;;;;;;1045790;28;20505;-74
2023/01/08 00:35:08;;;;;;;28.65;12.10;;;;;;;;;;1045788;28;20071;-74
2023/01/08 00:35:38;;;;;;;31.27;15.93;;;;;;;;;;1047079;28;20048;-74
2023/01/08 00:36:14;;;;;;;55.47;17.60;;;;;;;;;;1045897;28;20027;-74
2023/01/08 00:36:44;;;;;;;37.80;18.10;;;;;;;;;;1046630;28;20106;-74
2023/01/08 00:37:17;;;;;;;31.50;15.75;;;;;;;;;;1046050;28;20077;-74
2023/01/08 00:37:48;;;;;;;35.78;15.30;;;;;;;;;;1046199;28;20035;-74
2023/01/08 00:38:19;;;;;;;39.42;15.88;;;;;;;;;;1045376;28;20071;-74
2023/01/08 00:38:49;;;;;;;37.13;15.40;;;;;;;;;;1046387;28;20025;-74
2023/01/08 00:39:20;;;;;;;41.88;19.02;;;;;;;;;;1046197;28;20025;-74
2023/01/08 00:39:50;;;;;;;39.17;17.95;;;;;;;;;;1045608;28;20028;-74
2023/01/08 00:40:21;;;;;;;34.67;16.23;;;;;;;;;;1046364;28;20063;-74
2023/01/08 00:40:51;;;;;;;45.20;18.00;;;;;;;;;;1046384;28;20025;-74
2023/01/08 00:41:22;;;;;;;45.70;18.00;;;;;;;;;;1046301;28;20106;-74
2023/01/08 00:41:53;;;;;;;45.47;18.67;;;;;;;;;;1046442;28;20051;-74
2023/01/08 00:42:23;;;;;;;46.60;18.42;;;;;;;;;;1046106;28;20027;-74
2023/01/08 00:42:54;;;;;;;47.08;19.38;;;;;;;;;;1045528;28;20052;-74
2023/01/08 00:43:24;;;;;;;45.95;18.88;;;;;;;;;;1046246;28;20058;-74
2023/01/08 00:43:55;;;;;;;35.53;16.90;;;;;;;;;;1046465;28;20513;-74
2023/01/08 00:44:25;;;;;;;47.40;20.23;;;;;;;;;;1045581;28;20087;-73
2023/01/08 00:44:56;;;;;;;46.33;19.85;;;;;;;;;;1046703;28;20070;-73
2023/01/08 00:45:26;;;;;;;44.47;20.40;;;;;;;;;;1046091;28;20056;-74
2023/01/08 00:45:57;;;;;;;48.58;20.83;;;;;;;;;;1045889;28;20112;-73
2023/01/08 00:46:27;;;;;;;39.20;20.52;;;;;;;;;;1045636;28;20024;-74
2023/01/08 00:46:58;;;;;;;52.83;23.23;;;;;;;;;;1046222;28;20037;-74
2023/01/08 00:47:28;;;;;;;46.72;20.08;;;;;;;;;;1046300;28;20086;-73
2023/01/08 00:47:59;;;;;;;46.25;22.63;;;;;;;;;;1045263;28;20075;-74
2023/01/08 00:48:30;;;;;;;45.78;19.73;;;;;;;;;;1046060;28;20024;-74
2023/01/08 00:49:00;;;;;;;43.60;19.08;;;;;;;;;;1046205;28;20116;-74
2023/01/08 00:49:31;;;;;;;46.22;19.65;;;;;;;;;;1046151;28;20054;-74
2023/01/08 00:50:02;;;;;;;43.65;20.83;;;;;;;;;;1046061;28;20020;-74
2023/01/08 00:50:32;;;;;;;48.13;19.55;;;;;;;;;;1045700;28;20024;-74
2023/01/08 00:51:03;;;;;;;38.45;17.17;;;;;;;;;;1046839;28;20107;-74
2023/01/08 00:51:34;;;;;;;48.35;20.25;;;;;;;;;;1044115;28;20025;-74
2023/01/08 00:52:04;;;;;;;38.53;17.17;;;;;;;;;;1046437;28;20025;-74
2023/01/08 00:52:35;;;;;;;41.25;15.90;;;;;;;;;;1046810;28;20047;-74
2023/01/08 00:53:05;;;;;;;39.33;18.08;;;;;;;;;;1045040;28;20024;-74
2023/01/08 00:53:39;;;;;;;47.83;19.58;;;;;;;;;;1047787;28;20029;-74
2023/01/08 00:54:12;;;;;;;41.00;17.33;;;;;;;;;;1046633;28;20035;-74
2023/01/08 00:54:43;;;;;;;38.28;19.05;;;;;;;;;;1046491;28;20843;-74
2023/01/08 00:55:13;;;;;;;48.70;16.90;;;;;;;;;;1046317;28;21136;-74
2023/01/08 00:55:44;;;;;;;44.05;17.50;;;;;;;;;;1045688;28;20035;-74
2023/01/08 00:56:15;;;;;;;38.35;19.92;;;;;;;;;;1046197;28;20035;-74
2023/01/08 00:56:45;;;;;;;42.20;17.20;;;;;;;;;;1046206;28;20048;-74
2023/01/08 00:57:16;;;;;;;40.13;18.15;;;;;;;;;;1045523;28;20029;-74
2023/01/08 00:57:46;;;;;;;40.80;18.92;;;;;;;;;;1046333;28;20101;-74
2023/01/08 00:58:17;;;;;;;46.90;18.48;;;;;;;;;;1044611;28;20144;-74
2023/01/08 00:58:47;;;;;;;39.83;19.77;;;;;;;;;;1046200;28;20032;-74
2023/01/08 00:59:18;;;;;;;39.50;17.80;;;;;;;;;;1046141;28;20067;-74
2023/01/08 00:59:49;;;;;;;34.60;15.45;;;;;;;;;;1046256;28;20051;-74
2023/01/08 01:00:19;;;;;;;40.80;16.13;;;;;;;;;;1046285;28;20017;-74
2023/01/08 01:00:50;;;;;;;36.60;17.15;;;;;;;;;;1045416;28;20029;-74
2023/01/08 01:01:20;;;;;;;47.05;19.13;;;;;;;;;;1046497;28;20025;-73
2023/01/08 01:01:53;;;;;;;36.22;17.92;;;;;;;;;;1046684;28;20032;-74
2023/01/08 01:02:23;;;;;;;29.88;15.52;;;;;;;;;;1045465;28;20034;-74
2023/01/08 01:02:54;;;;;;;39.15;19.10;;;;;;;;;;1046055;28;20388;-74
2023/01/08 01:03:25;;;;;;;38.53;17.83;;;;;;;;;;1046175;28;20035;-74
2023/01/08 01:03:55;;;;;;;40.30;16.85;;;;;;;;;;1044330;28;20021;-74
2023/01/08 01:04:26;;;;;;;25.90;14.43;;;;;;;;;;1046340;28;20100;-74
2023/01/08 01:04:56;;;;;;;32.15;14.82;;;;;;;;;;1045547;28;20115;-74
2023/01/08 01:05:27;;;;;;;32.53;17.88;;;;;;;;;;1046246;28;20516;-74
2023/01/08 01:06:01;;;;;;;44.42;14.75;;;;;;;;;;1046200;28;20029;-74
2023/01/08 01:06:31;;;;;;;35.20;14.85;;;;;;;;;;1044612;28;20024;-74
2023/01/08 01:07:02;;;;;;;48.65;16.08;;;;;;;;;;1045563;28;20411;-74
2023/01/08 01:07:33;;;;;;;37.47;17.13;;;;;;;;;;1046331;28;20020;-74
2023/01/08 01:08:04;;;;;;;29.48;13.50;;;;;;;;;;1045431;28;20024;-74
2023/01/08 01:08:34;;;;;;;33.33;14.93;;;;;;;;;;1046853;28;20027;-74
2023/01/08 01:09:05;;;;;;;25.92;13.20;;;;;;;;;;1046107;28;20115;-74
2023/01/08 01:09:36;;;;;;;40.05;15.43;;;;;;;;;;1046185;28;20026;-74
2023/01/08 01:10:07;;;;;;;23.92;12.50;;;;;;;;;;1045449;28;20490;-74
2023/01/08 01:10:38;;;;;;;24.33;12.45;;;;;;;;;;1046236;28;20027;-74
2023/01/08 01:11:17;;;;;;;30.63;12.40;;;;;;;;;;1045894;28;20020;-74
2023/01/08 01:11:47;;;;;;;27.17;11.45;;;;;;;;;;1045774;28;20021;-74
2023/01/08 01:12:18;;;;;;;40.17;13.10;;;;;;;;;;1046334;28;20028;-74
2023/01/08 01:12:48;;;;;;;25.42;11.73;;;;;;;;;;1046272;28;20036;-74
2023/01/08 01:13:19;;;;;;;38.33;13.30;;;;;;;;;;1046328;28;20016;-74
2023/01/08 01:13:49;;;;;;;27.00;11.13;;;;;;;;;;1046957;28;20027;-74
2023/01/08 01:14:20;;;;;;;26.17;10.85;;;;;;;;;;1046176;28;20032;-74
2023/01/08 01:14:51;;;;;;;28.13;11.02;;;;;;;;;;1045421;28;20021;-74
2023/01/08 01:15:21;;;;;;;31.58;13.15;;;;;;;;;;1045212;28;20107;-74
2023/01/08 01:16:01;;;;;;;23.42;12.38;;;;;;;;;;1046246;28;20103;-74
2023/01/08 01:16:32;;;;;;;26.20;12.23;;;;;;;;;;1046230;28;20024;-74
2023/01/08 01:17:03;;;;;;;26.40;11.57;;;;;;;;;;1046624;28;20036;-74
2023/01/08 01:17:34;;;;;;;26.83;11.02;;;;;;;;;;1046275;28;20027;-74
2023/01/08 01:18:05;;;;;;;23.70;10.85;;;;;;;;;;1046011;28;20066;-74
2023/01/08 01:18:35;;;;;;;22.08;12.35;;;;;;;;;;1046685;28;20049;-74
2023/01/08 01:19:06;;;;;;;25.13;10.75;;;;;;;;;;1045735;28;20064;-74
2023/01/08 01:19:36;;;;;;;22.90;9.73;;;;;;;;;;1045216;28;20016;-74
2023/01/08 01:20:08;;;;;;;20.05;9.88;;;;;;;;;;1045559;28;20028;-74
2023/01/08 01:20:39;;;;;;;20.90;10.07;;;;;;;;;;1045981;28;20025;-74
2023/01/08 01:21:11;;;;;;;30.08;9.05;;;;;;;;;;1045501;28;20024;-74
2023/01/08 01:21:41;;;;;;;18.13;8.88;;;;;;;;;;1046044;28;20112;-73
2023/01/08 01:22:12;;;;;;;21.90;9.93;;;;;;;;;;1046145;28;20473;-74
2023/01/08 01:22:43;;;;;;;21.08;7.75;;;;;;;;;;1045612;28;20024;-73
2023/01/08 01:23:13;;;;;;;21.27;8.77;;;;;;;;;;1046001;28;20491;-74
2023/01/08 01:23:44;;;;;;;24.67;9.02;;;;;;;;;;1046390;28;20119;-74
2023/01/08 01:24:14;;;;;;;24.42;8.35;;;;;;;;;;1045756;28;20028;-74
2023/01/08 01:24:45;;;;;;;31.27;10.13;;;;;;;;;;1046169;28;20066;-74
2023/01/08 01:25:16;;;;;;;28.80;8.70;;;;;;;;;;1046059;28;20020;-74
2023/01/08 01:25:46;;;;;;;16.73;8.55;;;;;;;;;;1046120;28;20106;-73
2023/01/08 01:26:17;;;;;;;18.02;9.45;;;;;;;;;;1046020;28;20025;-73
2023/01/08 01:26:48;;;;;;;30.17;9.90;;;;;;;;;;1046212;28;20035;-74
2023/01/08 01:27:19;;;;;;;23.73;10.57;;;;;;;;;;1046042;28;20051;-74
2023/01/08 01:27:49;;;;;;;25.52;11.02;;;;;;;;;;1044683;28;20380;-74
2023/01/08 01:28:20;;;;;;;24.63;9.77;;;;;;;;;;1045923;28;20156;-74
2023/01/08 01:28:51;;;;;;;27.48;11.73;;;;;;;;;;1046110;28;20052;-74
2023/01/08 01:29:22;;;;;;;30.38;13.60;;;;;;;;;;1045732;28;20520;-74
2023/01/08 01:29:53;;;;;;;45.38;16.58;;;;;;;;;;1046102;28;20032;-74
2023/01/08 01:30:23;;;;;;;35.63;13.32;;;;;;;;;;1048637;28;20344;-74
2023/01/08 01:30:55;;;;;;;37.50;14.38;;;;;;;;;;1050473;28;20521;-74
2023/01/08 01:31:27;;;;;;;34.00;13.80;;;;;;;;;;1050247;28;20020;-74
2023/01/08 01:31:57;;;;;;;30.88;14.13;;;;;;;;;;1049274;28;20415;-74
2023/01/08 01:32:28;;;;;;;26.58;12.98;;;;;;;;;;1045919;28;20025;-74
2023/01/08 01:32:58;;;;;;;34.17;13.80;;;;;;;;;;1045796;28;20032;-74
2023/01/08 01:33:29;;;;;;;34.85;13.70;;;;;;;;;;1046122;28;20021;-74
2023/01/08 01:33:59;;;;;;;29.90;14.38;;;;;;;;;;1046070;28;20021;-74
2023/01/08 01:34:30;;;;;;;24.73;10.40;;;;;;;;;;1045877;28;20020;-74
2023/01/08 01:35:01;;;;;;;23.58;10.93;;;;;;;;;;1044075;28;20056;-74
2023/01/08 01:35:32;;;;;;;20.30;13.43;;;;;;;;;;1046348;28;20047;-74
2023/01/08 01:36:02;;;;;;;30.20;11.05;;;;;;;;;;1045956;28;20055;-74
2023/01/08 01:36:33;;;;;;;22.15;11.80;;;;;;;;;;1046144;28;20029;-74
2023/01/08 01:37:05;;;;;;;28.67;12.25;;;;;;;;;;1045865;28;20389;-74
2023/01/08 01:37:35;;;;;;;24.88;12.15;;;;;;;;;;1046192;28;20029;-74
2023/01/08 01:38:06;;;;;;;24.98;10.48;;;;;;;;;;1046176;28;20059;-74
2023/01/08 01:38:37;;;;;;;16.80;10.27;;;;;;;;;;1041761;28;20071;-74
2023/01/08 01:39:07;;;;;;;23.52;11.35;;;;;;;;;;1045472;28;20028;-73
2023/01/08 01:39:38;;;;;;;24.67;11.73;;;;;;;;;;1045703;28;20081;-73
2023/01/08 01:40:09;;;;;;;28.88;11.27;;;;;;;;;;1045635;28;20063;-74
2023/01/08 01:40:42;;;;;;;20.85;11.02;;;;;;;;;;1046242;28;20060;-74
2023/01/08 01:41:27;;;;;;;16.00;9.70;;;;;;;;;;1046318;28;20025;-76
2023/01/08 01:41:57;;;;;;;21.77;9.75;;;;;;;;;;1045906;28;20497;-76
2023/01/08 01:42:40;;;;;;;26.42;9.30;;;;;;;;;;1045565;28;20024;-76
2023/01/08 01:43:13;;;;;;;20.15;11.13;;;;;;;;;;1045981;28;20559;-76
2023/01/08 01:43:44;;;;;;;20.65;8.98;;;;;;;;;;1046307;28;20020;-76
2023/01/08 01:44:34;;;;;;;23.60;9.27;;;;;;;;;;1046233;28;20052;-76
2023/01/08 01:45:16;;;;;;;18.35;9.05;;;;;;;;;;1045405;28;20028;-76
2023/01/08 01:45:47;;;;;;;21.60;9.90;;;;;;;;;;1046449;28;20069;-75
2023/01/08 01:46:17;;;;;;;15.52;9.18;;;;;;;;;;1044889;28;20069;-75
2023/01/08 01:46:48;;;;;;;15.20;8.90;;;;;;;;;;1045592;28;20020;-76
2023/01/08 01:47:22;;;;;;;23.30;11.55;;;;;;;;;;1045600;28;20489;-76
2023/01/08 01:47:52;;;;;;;28.52;10.27;;;;;;;;;;1045474;28;20025;-76
2023/01/08 01:48:23;;;;;;;17.55;7.38;;;;;;;;;;1046339;28;20484;-76
2023/01/08 01:48:55;;;;;;;15.18;7.93;;;;;;;;;;1045459;28;20099;-76
2023/01/08 01:49:26;;;;;;;20.02;7.70;;;;;;;;;;1045616;28;20027;-75
2023/01/08 01:50:14;;;;;;;14.40;7.55;;;;;;;;;;1045892;28;20016;-76
2023/01/08 01:50:47;;;;;;;21.77;7.75;;;;;;;;;;1044725;28;20021;-76
2023/01/08 01:51:18;;;;;;;20.27;10.02;;;;;;;;;;1045641;28;20102;-76
2023/01/08 01:51:51;;;;;;;15.90;6.75;;;;;;;;;;1047637;28;20457;-76
2023/01/08 01:52:23;;;;;;;17.08;8.60;;;;;;;;;;1047264;28;20463;-76
2023/01/08 01:52:58;;;;;;;24.27;8.10;;;;;;;;;;1046130;28;20449;-76
2023/01/08 01:53:30;;;;;;;17.83;6.03;;;;;;;;;;1046309;28;20025;-76
2023/01/08 01:54:02;;;;;;;13.30;6.00;;;;;;;;;;1046511;28;20037;-76
2023/01/08 01:54:34;;;;;;;16.58;6.85;;;;;;;;;;1046278;28;20103;-76
2023/01/08 01:55:05;;;;;;;10.93;6.03;;;;;;;;;;1046037;28;20119;-76
2023/01/08 01:55:40;;;;;;;12.30;6.65;;;;;;;;;;1045925;28;20094;-76
2023/01/08 01:56:11;;;;;;;11.43;5.32;;;;;;;;;;1045281;28;20016;-76
2023/01/08 01:56:42;;;;;;;19.73;6.53;;;;;;;;;;1046016;28;20496;-76
2023/01/08 01:57:12;;;;;;;13.40;6.45;;;;;;;;;;1045971;28;20012;-76
2023/01/08 01:57:45;;;;;;;17.75;6.78;;;;;;;;;;1046029;28;20024;-74
2023/01/08 01:58:18;;;;;;;15.18;7.32;;;;;;;;;;1045837;28;20025;-74
2023/01/08 01:58:48;;;;;;;15.35;5.90;;;;;;;;;;1045759;28;20013;-74
2023/01/08 01:59:19;;;;;;;15.82;7.30;;;;;;;;;;1046221;28;20111;-74
2023/01/08 01:59:50;;;;;;;14.40;6.47;;;;;;;;;;1046327;28;20025;-74
2023/01/08 02:00:22;;;;;;;23.65;6.95;;;;;;;;;;1046506;28;20213;-74
2023/01/08 02:00:54;;;;;;;16.83;6.97;;;;;;;;;;1044898;28;20066;-74
2023/01/08 02:01:25;;;;;;;12.43;6.10;;;;;;;;;;1045884;28;20028;-74
2023/01/08 02:01:56;;;;;;;23.15;6.40;;;;;;;;;;1045584;28;20020;-74
2023/01/08 02:02:27;;;;;;;18.73;7.35;;;;;;;;;;1045946;28;20489;-73
2023/01/08 02:02:58;;;;;;;18.45;7.93;;;;;;;;;;1045958;28;20020;-73
2023/01/08 02:03:32;;;;;;;20.27;5.63;;;;;;;;;;1046030;28;20024;-74
2023/01/08 02:04:02;;;;;;;24.10;7.10;;;;;;;;;;1046010;28;20020;-74
2023/01/08 02:04:33;;;;;;;14.65;6.65;;;;;;;;;;1045462;28;20161;-74
2023/01/08 02:05:04;;;;;;;11.48;6.95;;;;;;;;;;1045047;28;20021;-74
2023/01/08 02:05:40;;;;;;;16.77;8.25;;;;;;;;;;1046348;28;20552;-74
2023/01/08 02:06:16;;;;;;;14.55;6.40;;;;;;;;;;1046352;28;20047;-74
2023/01/08 02:06:59;;;;;;;20.00;7.47;;;;;;;;;;1045854;28;21496;-74
2023/01/08 02:07:32;;;;;;;21.83;6.60;;;;;;;;;;1046011;28;20036;-74
2023/01/08 02:08:09;;;;;;;24.13;8.93;;;;;;;;;;1045989;28;20025;-74
2023/01/08 02:09:00;;;;;;;22.30;8.18;;;;;;;;;;1046178;28;20012;-74
2023/01/08 02:09:51;;;;;;;16.48;7.80;;;;;;;;;;1046248;28;20475;-74
2023/01/08 02:10:42;;;;;;;22.67;8.30;;;;;;;;;;1045772;28;20557;-74
2023/01/08 02:11:34;;;;;;;20.42;9.18;;;;;;;;;;1044921;28;20585;-76
2023/01/08 02:12:16;;;;;;;18.77;7.95;;;;;;;;;;1045222;28;20036;-76
2023/01/08 02:12:50;;;;;;;30.98;8.95;;;;;;;;;;1044548;28;20016;-76
2023/01/08 02:13:32;;;;;;;23.88;9.52;;;;;;;;;;1046515;28;20027;-76
2023/01/08 02:14:06;;;;;;;25.90;9.00;;;;;;;;;;1046134;28;20027;-76
2023/01/08 02:14:41;;;;;;;18.65;7.68;;;;;;;;;;1045896;28;20520;-76
2023/01/08 02:15:23;;;;;;;14.73;7.18;;;;;;;;;;1045796;28;20030;-76
2023/01/08 02:16:04;;;;;;;13.70;8.60;;;;;;;;;;1046063;28;20017;-74
2023/01/08 02:17:00;;;;;;;18.08;7.90;;;;;;;;;;1046288;28;20020;-74
2023/01/08 02:17:49;;;;;;;25.02;8.10;;;;;;;;;;1042169;28;20111;-75
2023/01/08 02:18:25;;;;;;;15.85;6.78;;;;;;;;;;1045473;28;20025;-76
2023/01/08 02:18:59;;;;;;;19.13;7.97;;;;;;;;;;1045717;28;20086;-76
2023/01/08 02:19:43;;;;;;;18.45;7.43;;;;;;;;;;1045874;28;20110;-75
2023/01/08 02:20:20;;;;;;;22.85;7.97;;;;;;;;;;1045711;28;20130;-75
2023/01/08 02:21:09;;;;;;;19.00;9.60;;;;;;;;;;1045418;28;20159;-74
2023/01/08 02:21:39;;;;;;;21.17;7.82;;;;;;;;;;1046355;28;20063;-74
2023/01/08 02:22:16;;;;;;;18.98;7.57;;;;;;;;;;1045800;28;20418;-74
2023/01/08 02:22:52;;;;;;;16.08;6.85;;;;;;;;;;1045761;28;20036;-74
2023/01/08 02:23:32;;;;;;;13.63;7.30;;;;;;;;;;1045855;28;20025;-74
2023/01/08 02:24:16;;;;;;;15.73;7.68;;;;;;;;;;1045948;28;20422;-74
2023/01/08 02:25:01;;;;;;;19.73;8.75;;;;;;;;;;1046081;28;20603;-74
2023/01/08 02:25:50;;;;;;;19.67;8.35;;;;;;;;;;1046738;28;20024;-74
2023/01/08 02:26:26;;;;;;;12.68;7.47;;;;;;;;;;1045496;28;20044;-74
2023/01/08 02:26:58;;;;;;;14.75;8.23;;;;;;;;;;1045777;28;20491;-74
2023/01/08 02:27:29;;;;;;;22.73;8.70;;;;;;;;;;1045132;28;20017;-74
2023/01/08 02:28:01;;;;;;;17.20;7.13;;;;;;;;;;1046390;28;20404;-74
2023/01/08 02:28:36;;;;;;;11.88;7.55;;;;;;;;;;1046221;28;20111;-74
2023/01/08 02:29:08;;;;;;;25.67;9.15;;;;;;;;;;1046143;28;20031;-74
2023/01/08 02:29:39;;;;;;;21.50;8.55;;;;;;;;;;1046263;28;20013;-74
2023/01/08 02:30:10;;;;;;;20.58;9.63;;;;;;;;;;1046344;28;20028;-76
2023/01/08 02:30:41;;;;;;;32.65;11.25;;;;;;;;;;1045862;28;20078;-74
2023/01/08 02:31:13;;;;;;;15.25;10.40;;;;;;;;;;1045890;28;20032;-74
2023/01/08 02:31:44;;;;;;;28.80;10.63;;;;;;;;;;1046015;28;20070;-74
2023/01/08 02:32:15;;;;;;;18.80;8.07;;;;;;;;;;1044150;28;20528;-74
2023/01/08 02:32:45;;;;;;;26.00;10.43;;;;;;;;;;1041299;28;20192;-74
2023/01/08 02:33:16;;;;;;;21.25;8.55;;;;;;;;;;1040908;28;20148;-74
2023/01/08 02:33:46;;;;;;;23.48;10.35;;;;;;;;;;1040168;28;20095;-74
2023/01/08 02:34:17;;;;;;;23.92;9.77;;;;;;;;;;1041289;28;20025;-74
2023/01/08 02:34:47;;;;;;;24.63;10.30;;;;;;;;;;1042024;28;20034;-74
2023/01/08 02:35:18;;;;;;;19.90;10.13;;;;;;;;;;1041647;28;20020;-74
2023/01/08 02:35:53;;;;;;;23.23;11.23;;;;;;;;;;1046792;28;20021;-74
2023/01/08 02:36:24;;;;;;;20.80;9.38;;;;;;;;;;1047367;28;20028;-74
2023/01/08 02:36:56;;;;;;;25.48;10.48;;;;;;;;;;1048715;28;20032;-74
2023/01/08 02:37:26;;;;;;;18.73;9.30;;;;;;;;;;1045349;28;20025;-74
2023/01/08 02:37:57;;;;;;;25.55;10.73;;;;;;;;;;1045626;28;20021;-74
2023/01/08 02:38:28;;;;;;;33.30;11.25;;;;;;;;;;1045834;28;20033;-74
2023/01/08 02:38:58;;;;;;;22.98;10.57;;;;;;;;;;1045883;28;20016;-74
2023/01/08 02:39:47;;;;;;;30.85;12.45;;;;;;;;;;1046497;28;20024;-74
2023/01/08 02:40:23;;;;;;;27.85;10.27;;;;;;;;;;1046885;28;20025;-74
2023/01/08 02:41:02;;;;;;;28.52;11.98;;;;;;;;;;1046331;28;20060;-74
2023/01/08 02:41:51;;;;;;;30.20;12.00;;;;;;;;;;1046359;28;20493;-74
2023/01/08 02:42:31;;;;;;;29.60;13.52;;;;;;;;;;1046027;28;20016;-74
2023/01/08 02:43:16;;;;;;;23.95;12.20;;;;;;;;;;1045158;28;20016;-74
2023/01/08 02:43:49;;;;;;;21.10;11.30;;;;;;;;;;1044687;28;20063;-74
2023/01/08 02:44:25;;;;;;;21.23;10.02;;;;;;;;;;1044736;28;20020;-74
2023/01/08 02:45:04;;;;;;;33.30;13.48;;;;;;;;;;1044290;28;20462;-74
2023/01/08 02:45:42;;;;;;;35.47;13.32;;;;;;;;;;1045995;28;20502;-74
2023/01/08 02:46:25;;;;;;;22.33;11.73;;;;;;;;;;1046242;28;20064;-73
2023/01/08 02:46:57;;;;;;;27.90;13.02;;;;;;;;;;1046115;28;20021;-74
2023/01/08 02:47:36;;;;;;;29.00;12.15;;;;;;;;;;1046244;28;20021;-74
2023/01/08 02:48:15;;;;;;;25.58;13.45;;;;;;;;;;1046251;28;20063;-74
2023/01/08 02:48:47;;;;;;;37.47;13.25;;;;;;;;;;1045961;28;20032;-74
2023/01/08 02:49:20;;;;;;;31.50;14.50;;;;;;;;;;1045525;28;20047;-74
2023/01/08 02:49:53;;;;;;;38.55;15.32;;;;;;;;;;1045728;28;20542;-74
2023/01/08 02:50:27;;;;;;;28.42;13.50;;;;;;;;;;1045308;28;20029;-74
2023/01/08 02:51:16;;;;;;;44.70;15.60;;;;;;;;;;1045788;28;20025;-74
2023/01/08 02:51:48;;;;;;;31.83;14.00;;;;;;;;;;1045984;28;20035;-74
2023/01/08 02:52:19;;;;;;;32.17;15.88;;;;;;;;;;1045931;28;20028;-74
2023/01/08 02:53:02;;;;;;;32.85;14.00;;;;;;;;;;1045862;28;20123;-74
2023/01/08 02:53:41;;;;;;;41.25;16.80;;;;;;;;;;1045876;28;20108;-74
2023/01/08 02:54:14;;;;;;;37.85;14.90;;;;;;;;;;1045913;28;20131;-74
2023/01/08 02:54:46;;;;;;;43.72;17.30;;;;;;;;;;1045683;28;20071;-74
2023/01/08 02:55:17;;;;;;;51.90;20.00;;;;;;;;;;1046362;28;20017;-74
2023/01/08 02:55:50;;;;;;;42.10;18.35;;;;;;;;;;1045440;28;20028;-74
2023/01/08 02:56:23;;;;;;;46.15;15.95;;;;;;;;;;1046139;28;20043;-74
2023/01/08 02:56:59;;;;;;;38.00;15.45;;;;;;;;;;1045862;28;20515;-74
2023/01/08 02:57:31;;;;;;;37.15;16.58;;;;;;;;;;1045854;28;20029;-74
2023/01/08 02:58:02;;;;;;;51.65;19.17;;;;;;;;;;1045420;28;20025;-74
2023/01/08 02:58:34;;;;;;;32.50;14.77;;;;;;;;;;1045395;28;20017;-74
2023/01/08 02:59:06;;;;;;;28.67;14.07;;;;;;;;;;1045222;28;20021;-74
2023/01/08 02:59:38;;;;;;;36.42;16.30;;;;;;;;;;1045686;28;20124;-74
2023/01/08 03:00:09;;;;;;;37.67;16.17;;;;;;;;;;1044733;28;20028;-74
2023/01/08 03:00:41;;;;;;;35.83;16.65;;;;;;;;;;1045146;28;20499;-74
2023/01/08 03:01:12;;;;;;;35.65;16.20;;;;;;;;;;1044322;28;20068;-74
2023/01/08 03:01:44;;;;;;;35.17;16.15;;;;;;;;;;1046079;28;20079;-74
2023/01/08 03:02:15;;;;;;;37.53;15.40;;;;;;;;;;1044808;28;20016;-74
2023/01/08 03:02:47;;;;;;;37.22;15.77;;;;;;;;;;1043410;28;20485;-74
2023/01/08 03:03:25;;;;;;;39.25;12.52;;;;;;;;;;1042016;28;20064;-74
2023/01/08 03:03:57;;;;;;;45.35;15.70;;;;;;;;;;1042106;28;20079;-74
2023/01/08 03:04:30;;;;;;;35.50;14.68;;;;;;;;;;1040384;28;20172;-74
2023/01/08 03:05:04;;;;;;;48.90;15.23;;;;;;;;;;1041619;28;20398;-74
2023/01/08 03:05:35;;;;;;;30.70;14.50;;;;;;;;;;1041500;28;20060;-74
2023/01/08 03:06:07;;;;;;;34.72;13.73;;;;;;;;;;1041627;28;20088;-74
2023/01/08 03:06:37;;;;;;;31.70;13.50;;;;;;;;;;1042441;28;20021;-74
2023/01/08 03:07:08;;;;;;;39.88;15.40;;;;;;;;;;1045718;28;20016;-74
2023/01/08 03:07:39;;;;;;;26.90;11.45;;;;;;;;;;1045450;28;20139;-74
2023/01/08 03:08:10;;;;;;;31.30;12.18;;;;;;;;;;1045436;28;20487;-74
2023/01/08 03:08:42;;;;;;;34.38;14.45;;;;;;;;;;1045643;28;20464;-74
2023/01/08 03:09:13;;;;;;;37.72;14.85;;;;;;;;;;1045902;28;20502;-74
2023/01/08 03:09:44;;;;;;;31.38;12.48;;;;;;;;;;1046089;28;20017;-74
2023/01/08 03:10:15;;;;;;;36.30;15.60;;;;;;;;;;1046116;28;20032;-73
2023/01/08 03:10:49;;;;;;;40.63;14.63;;;;;;;;;;1046178;28;20028;-74
2023/01/08 03:11:21;;;;;;;28.88;13.15;;;;;;;;;;1045704;28;20111;-74